createdAt,value
2023-11-05T00:00:15.232Z,8.60
2023-11-05T00:02:43.669Z,8.70
2023-11-05T00:05:15.667Z,8.80
2023-11-05T00:07:44.625Z,8.80
2023-11-05T00:10:14.773Z,8.80
2023-11-05T00:12:43.228Z,8.80
2023-11-05T00:15:12.282Z,8.80
2023-11-05T00:17:40.715Z,8.90
2023-11-05T00:20:10.917Z,8.90
2023-11-05T00:22:39.989Z,8.90
2023-11-05T00:25:09.542Z,8.90
2023-11-05T00:27:39.299Z,8.90
2023-11-05T00:30:09.181Z,8.90
2023-11-05T00:32:37.647Z,9.00
2023-11-05T00:35:07.045Z,9.00
2023-11-05T00:37:35.508Z,9.00
2023-11-05T00:40:06.319Z,9.00
2023-11-05T00:42:35.336Z,9.00
2023-11-05T00:45:05.883Z,9.00
2023-11-05T00:47:34.463Z,9.00
2023-11-05T00:50:03.006Z,9.00
2023-11-05T00:52:31.570Z,9.00
2023-11-05T00:55:00.006Z,9.00
2023-11-05T00:57:28.354Z,9.10
2023-11-05T00:59:56.763Z,9.10
2023-11-05T01:02:26.560Z,9.00
2023-11-05T01:04:56.186Z,9.00
2023-11-05T01:07:24.725Z,9.00
2023-11-05T01:09:53.113Z,9.10
2023-11-05T01:12:21.444Z,9.10
2023-11-05T01:14:50.127Z,9.00
2023-11-05T01:17:20.519Z,9.10
2023-11-05T01:19:52.343Z,9.00
2023-11-05T01:22:20.866Z,9.00
2023-11-05T01:24:49.354Z,9.10
2023-11-05T01:27:17.901Z,9.10
2023-11-05T01:29:46.331Z,9.00
2023-11-05T01:32:14.778Z,9.10
2023-11-05T01:34:43.136Z,9.10
2023-11-05T01:37:12.875Z,9.10
2023-11-05T01:39:41.381Z,9.10
2023-11-05T01:42:10.010Z,9.10
2023-11-05T01:44:38.513Z,9.10
2023-11-05T01:47:07.527Z,9.10
2023-11-05T01:49:35.903Z,9.10
2023-11-05T01:52:04.433Z,9.10
2023-11-05T01:54:34.407Z,9.10
2023-11-05T01:57:03.070Z,9.10
2023-11-05T01:59:31.467Z,9.10
2023-11-05T02:02:01.889Z,9.10
2023-11-05T02:04:30.821Z,9.10
2023-11-05T02:06:59.216Z,9.20
2023-11-05T02:09:27.645Z,9.20
2023-11-05T02:11:57.737Z,9.20
2023-11-05T02:14:26.405Z,9.20
2023-11-05T02:16:55.378Z,9.20
2023-11-05T02:19:24.306Z,9.20
2023-11-05T02:21:57.848Z,9.20
2023-11-05T02:24:28.327Z,9.20
2023-11-05T02:26:58.660Z,9.30
2023-11-05T02:29:27.341Z,9.30
2023-11-05T02:31:55.874Z,9.30
2023-11-05T02:34:24.383Z,9.30
2023-11-05T02:36:52.854Z,9.30
2023-11-05T02:39:21.317Z,9.30
2023-11-05T02:41:51.421Z,9.30
2023-11-05T02:44:19.925Z,9.30
2023-11-05T02:46:48.407Z,9.30
2023-11-05T02:49:16.864Z,9.30
2023-11-05T02:51:45.660Z,9.30
2023-11-05T02:54:14.392Z,9.30
2023-11-05T02:56:42.819Z,9.30
2023-11-05T02:59:17.469Z,9.40
2023-11-05T03:01:45.869Z,9.30
2023-11-05T03:04:14.541Z,9.30
2023-11-05T03:06:42.998Z,9.30
2023-11-05T03:09:12.073Z,9.30
2023-11-05T03:11:40.499Z,9.30
2023-11-05T03:14:08.873Z,9.30
2023-11-05T03:16:40.162Z,9.30
2023-11-05T03:19:08.764Z,9.30
2023-11-05T03:21:38.755Z,9.30
2023-11-05T03:24:08.473Z,9.30
2023-11-05T03:26:37.384Z,9.30
2023-11-05T03:29:06.012Z,9.30
2023-11-05T03:31:34.400Z,9.30
2023-11-05T03:34:05.244Z,9.30
2023-11-05T03:36:33.838Z,9.30
2023-11-05T03:39:04.160Z,9.30
2023-11-05T03:41:32.563Z,9.30
2023-11-05T03:44:01.172Z,9.30
2023-11-05T03:46:29.801Z,9.30
2023-11-05T03:48:58.292Z,9.30
2023-11-05T03:51:28.294Z,9.30
2023-11-05T03:53:56.806Z,9.30
2023-11-05T03:56:25.392Z,9.30
2023-11-05T03:58:53.825Z,9.30
2023-11-05T04:01:22.855Z,9.30
2023-11-05T04:03:51.310Z,9.30
2023-11-05T04:06:19.791Z,9.30
2023-11-05T04:08:49.587Z,9.30
2023-11-05T04:11:18.228Z,9.30
2023-11-05T04:13:46.996Z,9.30
2023-11-05T04:16:15.836Z,9.30
2023-11-05T04:18:46.427Z,9.30
2023-11-05T04:21:15.048Z,9.30
2023-11-05T04:23:43.384Z,9.30
2023-11-05T04:26:14.933Z,9.30
2023-11-05T04:28:43.446Z,9.30
2023-11-05T04:31:12.055Z,9.30
2023-11-05T04:33:40.632Z,9.30
2023-11-05T04:36:09.783Z,9.30
2023-11-05T04:38:38.844Z,9.30
2023-11-05T04:41:07.533Z,9.30
2023-11-05T04:43:37.463Z,9.30
2023-11-05T04:46:06.369Z,9.30
2023-11-05T04:48:34.905Z,9.20
2023-11-05T04:51:03.481Z,9.30
2023-11-05T04:53:32.438Z,9.30
2023-11-05T04:56:00.961Z,9.30
2023-11-05T04:58:29.428Z,9.30
2023-11-05T05:00:59.313Z,9.20
2023-11-05T05:03:27.955Z,9.30
2023-11-05T05:05:56.384Z,9.20
2023-11-05T05:08:24.790Z,9.30
2023-11-05T05:10:53.530Z,9.20
2023-11-05T05:13:22.123Z,9.20
2023-11-05T05:15:50.573Z,9.20
2023-11-05T05:18:20.447Z,9.30
2023-11-05T05:20:49.098Z,9.30
2023-11-05T05:23:17.489Z,9.20
2023-11-05T05:25:46.433Z,9.30
2023-11-05T05:28:14.895Z,9.30
2023-11-05T05:30:43.353Z,9.30
2023-11-05T05:33:11.904Z,9.30
2023-11-05T05:35:41.737Z,9.30
2023-11-05T05:38:10.115Z,9.30
2023-11-05T05:40:38.981Z,9.30
2023-11-05T05:43:07.493Z,9.30
2023-11-05T05:45:35.912Z,9.30
2023-11-05T05:48:04.495Z,9.30
2023-11-05T05:50:32.932Z,9.30
2023-11-05T05:53:02.744Z,9.30
2023-11-05T05:55:31.545Z,9.30
2023-11-05T05:58:00.297Z,9.30
2023-11-05T06:00:29.349Z,9.30
2023-11-05T06:02:57.816Z,9.30
2023-11-05T06:05:26.210Z,9.30
2023-11-05T06:07:54.714Z,9.30
2023-11-05T06:10:24.702Z,9.30
2023-11-05T06:12:53.169Z,9.30
2023-11-05T06:15:21.474Z,9.30
2023-11-05T06:17:50.409Z,9.30
2023-11-05T06:20:19.214Z,9.30
2023-11-05T06:22:47.808Z,9.30
2023-11-05T06:25:16.448Z,9.30
2023-11-05T06:27:46.249Z,9.30
2023-11-05T06:30:16.645Z,9.40
2023-11-05T06:32:45.056Z,9.40
2023-11-05T06:35:13.549Z,9.40
2023-11-05T06:37:42.022Z,9.40
2023-11-05T06:40:11.682Z,9.40
2023-11-05T06:42:40.401Z,9.40
2023-11-05T06:45:11.000Z,9.40
2023-11-05T06:47:39.433Z,9.50
2023-11-05T06:50:08.507Z,9.50
2023-11-05T06:52:40.761Z,9.50
2023-11-05T06:55:09.984Z,9.50
2023-11-05T06:57:38.755Z,9.50
2023-11-05T07:00:11.279Z,9.50
2023-11-05T07:02:39.808Z,9.60
2023-11-05T07:05:08.908Z,9.60
2023-11-05T07:07:37.540Z,9.60
2023-11-05T07:10:07.920Z,9.60
2023-11-05T07:12:36.477Z,9.70
2023-11-05T07:15:07.769Z,9.70
2023-11-05T07:17:39.878Z,9.70
2023-11-05T07:20:13.279Z,9.70
2023-11-05T07:22:42.572Z,9.70
2023-11-05T07:25:11.464Z,9.70
2023-11-05T07:27:40.326Z,9.70
2023-11-05T07:30:11.366Z,9.80
2023-11-05T07:32:41.438Z,9.80
2023-11-05T07:35:10.132Z,9.80
2023-11-05T07:37:38.577Z,9.80
2023-11-05T07:40:08.433Z,9.90
2023-11-05T07:42:38.275Z,9.90
2023-11-05T07:45:07.927Z,10.00
2023-11-05T07:47:40.171Z,10.00
2023-11-05T07:50:13.088Z,10.00
2023-11-05T07:52:43.776Z,10.00
2023-11-05T07:55:13.248Z,10.00
2023-11-05T07:57:42.722Z,10.00
2023-11-05T08:00:16.818Z,10.00
2023-11-05T08:02:45.545Z,10.00
2023-11-05T08:05:15.573Z,10.10
2023-11-05T08:07:43.987Z,10.10
2023-11-05T08:10:14.956Z,10.10
2023-11-05T08:12:43.389Z,10.10
2023-11-05T08:15:14.241Z,10.10
2023-11-05T08:17:43.200Z,10.10
2023-11-05T08:20:16.757Z,10.20
2023-11-05T08:22:45.683Z,10.20
2023-11-05T08:25:15.408Z,10.20
2023-11-05T08:27:44.181Z,10.20
2023-11-05T08:30:14.544Z,10.20
2023-11-05T08:32:44.194Z,10.20
2023-11-05T08:35:13.667Z,10.20
2023-11-05T08:37:43.618Z,10.20
2023-11-05T08:40:15.598Z,10.20
2023-11-05T08:42:44.604Z,10.10
2023-11-05T08:45:21.305Z,10.20
2023-11-05T08:47:50.464Z,10.20
2023-11-05T08:50:20.672Z,10.20
2023-11-05T08:52:50.660Z,10.20
2023-11-05T08:55:19.243Z,10.20
2023-11-05T08:57:47.646Z,10.20
2023-11-05T09:00:16.422Z,10.20
2023-11-05T09:02:45.197Z,10.20
2023-11-05T09:05:14.370Z,10.20
2023-11-05T09:07:47.646Z,10.30
2023-11-05T09:10:17.636Z,10.20
2023-11-05T09:12:46.283Z,10.30
2023-11-05T09:15:16.388Z,10.40
2023-11-05T09:17:47.795Z,10.40
2023-11-05T09:20:18.243Z,10.30
2023-11-05T09:22:49.032Z,10.40
2023-11-05T09:25:20.001Z,10.40
2023-11-05T09:27:50.465Z,10.40
2023-11-05T09:30:19.857Z,10.40
2023-11-05T09:32:51.893Z,10.50
2023-11-05T09:35:20.573Z,10.40
2023-11-05T09:37:49.547Z,10.50
2023-11-05T09:40:20.591Z,10.50
2023-11-05T09:43:00.297Z,10.30
2023-11-05T09:45:30.245Z,10.50
2023-11-05T09:47:59.552Z,10.40
2023-11-05T09:50:28.136Z,10.40
2023-11-05T09:53:06.666Z,10.50
2023-11-05T09:55:36.675Z,10.60
2023-11-05T09:58:05.653Z,10.60
2023-11-05T10:00:34.723Z,10.60
2023-11-05T10:03:07.193Z,10.60
2023-11-05T10:05:37.183Z,10.60
2023-11-05T10:08:06.947Z,10.60
2023-11-05T10:10:40.093Z,10.60
2023-11-05T10:13:08.849Z,10.50
2023-11-05T10:15:38.092Z,10.60
2023-11-05T10:18:07.956Z,10.60
2023-11-05T10:20:51.348Z,10.60
2023-11-05T10:23:20.268Z,10.60
2023-11-05T10:25:51.447Z,10.60
2023-11-05T10:28:21.931Z,10.70
2023-11-05T10:30:52.376Z,10.70
2023-11-05T10:33:21.825Z,10.70
2023-11-05T10:35:50.803Z,10.70
2023-11-05T10:38:20.502Z,10.70
2023-11-05T10:40:52.067Z,10.70
2023-11-05T10:43:24.647Z,10.70
2023-11-05T10:45:54.713Z,10.70
2023-11-05T10:48:23.324Z,10.80
2023-11-05T10:50:54.790Z,10.80
2023-11-05T10:53:24.021Z,10.90
2023-11-05T10:55:54.995Z,10.90
2023-11-05T10:58:40.362Z,10.90
2023-11-05T11:01:16.980Z,11.00
2023-11-05T11:03:45.893Z,11.00
2023-11-05T11:06:17.140Z,11.00
2023-11-05T11:09:00.826Z,11.10
2023-11-05T11:11:31.270Z,11.10
2023-11-05T11:13:59.801Z,11.10
2023-11-05T11:16:32.109Z,11.00
2023-11-05T11:19:08.979Z,11.10
2023-11-05T11:21:41.018Z,11.00
2023-11-05T11:24:35.664Z,11.00
2023-11-05T11:27:07.135Z,11.10
2023-11-05T11:29:36.592Z,11.10
2023-11-05T11:32:05.539Z,11.10
2023-11-05T11:34:34.586Z,11.10
2023-11-05T11:37:04.755Z,11.10
2023-11-05T11:39:34.079Z,11.10
2023-11-05T11:42:02.775Z,11.10
2023-11-05T11:44:32.953Z,11.10
2023-11-05T11:47:01.680Z,11.20
2023-11-05T11:49:30.800Z,11.20
2023-11-05T11:51:59.930Z,11.20
2023-11-05T11:54:30.644Z,11.30
2023-11-05T11:57:00.616Z,11.30
2023-11-05T11:59:30.761Z,11.20
2023-11-05T12:02:04.073Z,11.30
2023-11-05T12:04:32.730Z,11.30
2023-11-05T12:07:06.905Z,11.20
2023-11-05T12:09:36.396Z,11.30
2023-11-05T12:12:05.705Z,11.30
2023-11-05T12:14:35.082Z,11.20
2023-11-05T12:17:05.213Z,11.20
2023-11-05T12:19:35.974Z,11.30
2023-11-05T12:22:06.075Z,11.40
2023-11-05T12:24:34.813Z,11.60
2023-11-05T12:27:04.666Z,11.60
2023-11-05T12:29:34.276Z,11.60
2023-11-05T12:32:05.077Z,11.60
2023-11-05T12:34:33.582Z,11.60
2023-11-05T12:37:02.167Z,11.70
2023-11-05T12:39:30.634Z,11.70
2023-11-05T12:41:59.075Z,11.70
2023-11-05T12:44:27.584Z,11.80
2023-11-05T12:47:02.667Z,11.90
2023-11-05T12:49:32.726Z,11.90
2023-11-05T12:52:01.185Z,12.00
2023-11-05T12:54:29.634Z,12.00
2023-11-05T12:56:58.216Z,12.10
2023-11-05T12:59:27.914Z,12.20
2023-11-05T13:02:03.065Z,12.20
2023-11-05T13:04:36.482Z,12.10
2023-11-05T13:07:05.396Z,12.20
2023-11-05T13:09:34.414Z,12.20
2023-11-05T13:12:05.810Z,12.20
2023-11-05T13:14:34.966Z,12.20
2023-11-05T13:17:05.037Z,12.20
2023-11-05T13:19:34.946Z,12.20
2023-11-05T13:22:04.835Z,12.10
2023-11-05T13:24:33.564Z,12.10
2023-11-05T13:27:02.039Z,12.10
2023-11-05T13:29:31.385Z,12.00
2023-11-05T13:32:03.515Z,12.00
2023-11-05T13:34:32.782Z,11.90
2023-11-05T13:37:02.660Z,11.90
2023-11-05T13:39:31.201Z,11.90
2023-11-05T13:42:00.149Z,11.90
2023-11-05T13:44:28.997Z,11.90
2023-11-05T13:46:58.602Z,11.90
2023-11-05T13:49:28.003Z,11.90
2023-11-05T13:51:57.242Z,11.90
2023-11-05T13:54:28.950Z,11.90
2023-11-05T13:56:58.548Z,11.90
2023-11-05T13:59:28.027Z,11.90
2023-11-05T14:01:56.848Z,11.90
2023-11-05T14:04:26.175Z,11.90
2023-11-05T14:06:55.079Z,11.90
2023-11-05T14:09:24.170Z,11.90
2023-11-05T14:11:57.798Z,11.80
2023-11-05T14:14:26.220Z,11.80
2023-11-05T14:16:55.765Z,11.90
2023-11-05T14:19:24.997Z,11.90
2023-11-05T14:21:55.545Z,11.80
2023-11-05T14:24:25.225Z,11.80
2023-11-05T14:26:55.490Z,11.80
2023-11-05T14:29:24.275Z,11.70
2023-11-05T14:31:53.275Z,11.70
2023-11-05T14:34:22.685Z,11.70
2023-11-05T14:36:52.357Z,11.60
2023-11-05T14:39:21.657Z,11.50
2023-11-05T14:41:51.451Z,11.50
2023-11-05T14:44:21.598Z,11.50
2023-11-05T14:46:50.532Z,11.40
2023-11-05T14:49:19.058Z,11.40
2023-11-05T14:51:47.852Z,11.30
2023-11-05T14:54:16.780Z,11.20
2023-11-05T14:56:46.176Z,11.20
2023-11-05T14:59:15.557Z,11.20
2023-11-05T15:02:06.314Z,11.10
2023-11-05T15:04:45.087Z,11.10
2023-11-05T15:07:15.128Z,11.20
2023-11-05T15:09:52.690Z,11.00
2023-11-05T15:12:33.987Z,11.00
2023-11-05T15:15:04.375Z,11.00
2023-11-05T15:17:35.625Z,10.80
2023-11-05T15:20:05.867Z,10.80
2023-11-05T15:22:35.188Z,10.70
2023-11-05T15:25:04.802Z,10.70
2023-11-05T15:27:34.325Z,10.60
2023-11-05T15:30:07.359Z,10.50
2023-11-05T15:32:38.728Z,10.50
2023-11-05T15:35:08.843Z,10.40
2023-11-05T15:37:38.777Z,10.40
2023-11-05T15:40:10.825Z,10.30
2023-11-05T15:42:41.974Z,10.30
2023-11-05T15:45:13.241Z,10.20
2023-11-05T15:47:45.752Z,10.20
2023-11-05T15:50:14.863Z,10.20
2023-11-05T15:52:44.432Z,10.10
2023-11-05T15:55:13.628Z,10.10
2023-11-05T15:57:42.885Z,10.00
2023-11-05T16:00:15.315Z,10.00
2023-11-05T16:02:47.152Z,10.00
2023-11-05T16:05:15.919Z,10.00
2023-11-05T16:07:45.160Z,9.90
2023-11-05T16:10:14.446Z,9.80
2023-11-05T16:12:43.906Z,9.80
2023-11-05T16:15:14.566Z,9.80
2023-11-05T16:17:46.607Z,9.80
2023-11-05T16:20:16.789Z,9.70
2023-11-05T16:22:46.353Z,9.70
2023-11-05T16:25:18.582Z,9.70
2023-11-05T16:27:51.366Z,9.60
2023-11-05T16:30:21.939Z,9.60
2023-11-05T16:32:56.482Z,9.60
2023-11-05T16:35:28.034Z,9.60
2023-11-05T16:37:59.146Z,9.50
2023-11-05T16:40:31.871Z,9.50
2023-11-05T16:43:04.242Z,9.40
2023-11-05T16:45:34.797Z,9.40
2023-11-05T16:48:06.796Z,9.40
2023-11-05T16:50:36.110Z,9.40
2023-11-05T16:53:10.351Z,9.30
2023-11-05T16:55:43.162Z,9.30
2023-11-05T16:58:13.867Z,9.30
2023-11-05T17:00:45.102Z,9.30
2023-11-05T17:03:16.436Z,9.20
2023-11-05T17:05:49.287Z,9.20
2023-11-05T17:08:19.799Z,9.20
2023-11-05T17:10:51.697Z,9.20
2023-11-05T17:13:22.265Z,9.20
2023-11-05T17:15:53.382Z,9.10
2023-11-05T17:18:26.587Z,9.10
2023-11-05T17:20:57.968Z,9.00
2023-11-05T17:23:27.699Z,9.00
2023-11-05T17:25:58.496Z,9.00
2023-11-05T17:28:29.699Z,8.90
2023-11-05T17:31:01.636Z,8.90
2023-11-05T17:33:35.446Z,8.90
2023-11-05T17:36:09.122Z,8.90
2023-11-05T17:38:40.367Z,8.80
2023-11-05T17:41:11.584Z,8.80
2023-11-05T17:43:45.890Z,8.80
2023-11-05T17:46:16.654Z,8.80
2023-11-05T17:49:05.057Z,8.80
2023-11-05T17:51:35.925Z,8.60
2023-11-05T17:54:07.250Z,8.70
2023-11-05T17:56:39.037Z,8.70
2023-11-05T17:59:12.227Z,8.70
2023-11-05T18:01:43.034Z,8.70
2023-11-05T18:04:16.390Z,8.70
2023-11-05T18:06:46.618Z,8.60
2023-11-05T18:09:17.360Z,8.60
2023-11-05T18:11:50.122Z,8.60
2023-11-05T18:14:21.034Z,8.60
2023-11-05T18:16:55.075Z,8.60
2023-11-05T18:19:28.775Z,8.60
2023-11-05T18:22:01.412Z,8.60
2023-11-05T18:24:33.271Z,8.60
2023-11-05T18:27:04.365Z,8.60
2023-11-05T18:29:34.873Z,8.60
2023-11-05T18:32:09.140Z,8.50
2023-11-05T18:34:42.305Z,8.50
2023-11-05T18:37:17.549Z,8.50
2023-11-05T18:39:49.843Z,8.50
2023-11-05T18:42:21.243Z,8.50
2023-11-05T18:44:53.043Z,8.40
2023-11-05T18:47:25.119Z,8.40
2023-11-05T18:49:58.352Z,8.40
2023-11-05T18:52:30.129Z,8.30
2023-11-05T18:55:00.527Z,8.30
2023-11-05T18:57:32.479Z,8.30
2023-11-05T19:00:05.729Z,8.30
2023-11-05T19:02:37.434Z,8.30
2023-11-05T19:05:10.230Z,8.30
2023-11-05T19:07:40.337Z,8.30
2023-11-05T19:10:13.526Z,8.20
2023-11-05T19:12:43.144Z,8.20
2023-11-05T19:15:15.667Z,8.20
2023-11-05T19:17:50.604Z,8.20
2023-11-05T19:20:23.570Z,8.20
2023-11-05T19:22:59.309Z,8.10
2023-11-05T19:25:30.611Z,8.10
2023-11-05T19:28:01.142Z,8.10
2023-11-05T19:30:32.515Z,8.10
2023-11-05T19:33:03.022Z,8.10
2023-11-05T19:35:36.171Z,8.10
2023-11-05T19:38:07.190Z,8.00
2023-11-05T19:40:36.733Z,8.10
2023-11-05T19:43:09.458Z,8.00
2023-11-05T19:45:43.529Z,8.10
2023-11-05T19:48:13.623Z,8.10
2023-11-05T19:50:51.397Z,8.10
2023-11-05T19:53:23.120Z,8.10
2023-11-05T19:55:57.854Z,8.10
2023-11-05T19:58:30.425Z,8.20
2023-11-05T20:01:01.785Z,8.30
2023-11-05T20:03:32.837Z,8.30
2023-11-05T20:06:07.846Z,8.30
2023-11-05T20:08:41.295Z,8.30
2023-11-05T20:11:13.878Z,8.30
2023-11-05T20:13:48.398Z,8.20
2023-11-05T20:16:19.934Z,8.20
2023-11-05T20:18:53.011Z,8.20
2023-11-05T20:21:25.465Z,8.20
2023-11-05T20:23:56.949Z,8.20
2023-11-05T20:26:27.545Z,8.20
2023-11-05T20:29:09.708Z,8.20
2023-11-05T20:31:40.509Z,8.20
2023-11-05T20:34:12.626Z,8.10
2023-11-05T20:36:45.929Z,8.10
2023-11-05T20:39:16.542Z,8.10
2023-11-05T20:41:50.367Z,8.10
2023-11-05T20:44:21.118Z,8.10
2023-11-05T20:46:51.130Z,8.00
2023-11-05T20:49:23.195Z,8.00
2023-11-05T20:51:55.558Z,7.90
2023-11-05T20:54:25.742Z,7.90
2023-11-05T20:56:55.903Z,7.90
2023-11-05T20:59:26.430Z,7.90
2023-11-05T21:01:55.600Z,8.00
2023-11-05T21:04:25.021Z,8.00
2023-11-05T21:06:55.797Z,7.90
2023-11-05T21:09:26.222Z,7.90
2023-11-05T21:11:54.616Z,7.90
2023-11-05T21:14:23.966Z,7.90
2023-11-05T21:16:55.045Z,7.90
2023-11-05T21:19:24.561Z,7.90
2023-11-05T21:21:55.036Z,7.90
2023-11-05T21:24:23.498Z,7.80
2023-11-05T21:26:55.714Z,7.80
2023-11-05T21:29:24.936Z,7.80
2023-11-05T21:31:53.855Z,7.80
2023-11-05T21:34:22.596Z,7.80
2023-11-05T21:36:50.927Z,7.70
2023-11-05T21:39:21.081Z,7.70
2023-11-05T21:41:50.349Z,7.70
2023-11-05T21:44:19.213Z,7.70
2023-11-05T21:46:47.642Z,7.70
2023-11-05T21:49:16.709Z,7.60
2023-11-05T21:51:45.086Z,7.60
2023-11-05T21:54:17.380Z,7.60
2023-11-05T21:56:47.516Z,7.60
2023-11-05T21:59:15.980Z,7.60
2023-11-05T22:01:44.399Z,7.60
2023-11-05T22:04:12.966Z,7.60
2023-11-05T22:06:41.393Z,7.60
2023-11-05T22:09:09.740Z,7.60
2023-11-05T22:11:38.089Z,7.60
2023-11-05T22:14:08.055Z,7.60
2023-11-05T22:16:36.492Z,7.60
2023-11-05T22:19:05.191Z,7.60
2023-11-05T22:21:33.602Z,7.50
2023-11-05T22:24:02.274Z,7.50
2023-11-05T22:26:32.438Z,7.50
2023-11-05T22:29:01.557Z,7.40
2023-11-05T22:31:31.562Z,7.40
2023-11-05T22:34:00.155Z,7.40
2023-11-05T22:36:32.766Z,7.40
2023-11-05T22:39:01.465Z,7.40
2023-11-05T22:41:31.516Z,7.20
2023-11-05T22:43:59.932Z,7.20
2023-11-05T22:46:28.494Z,7.30
2023-11-05T22:48:58.344Z,7.40
2023-11-05T22:51:26.733Z,7.30
2023-11-05T22:53:55.059Z,7.30
2023-11-05T22:56:23.560Z,7.30
2023-11-05T22:58:52.074Z,7.30
2023-11-05T23:01:20.450Z,7.30
2023-11-05T23:03:55.764Z,7.30
2023-11-05T23:06:25.860Z,7.30
2023-11-05T23:08:54.234Z,7.40
2023-11-05T23:11:22.579Z,7.40
2023-11-05T23:13:50.957Z,7.40
2023-11-05T23:16:19.456Z,7.40
2023-11-05T23:18:47.871Z,7.50
2023-11-05T23:21:16.306Z,7.50
2023-11-05T23:23:46.446Z,7.50
2023-11-05T23:26:14.934Z,7.50
2023-11-05T23:28:43.346Z,7.50
2023-11-05T23:31:11.718Z,7.50
2023-11-05T23:33:40.190Z,7.60
2023-11-05T23:36:09.517Z,7.60
2023-11-05T23:38:38.045Z,7.50
2023-11-05T23:41:08.896Z,7.60
2023-11-05T23:43:37.332Z,7.50
2023-11-05T23:46:06.673Z,7.50
2023-11-05T23:48:35.059Z,7.50
2023-11-05T23:51:03.929Z,7.50
2023-11-05T23:53:32.303Z,7.50
2023-11-05T23:56:00.741Z,7.40
2023-11-05T23:58:30.520Z,7.50
